Time;durP1;ratioP1;P1;durP2;ratioP2;P2;SDS_P1;SDS_P2;PMS_P1;PMS_P2;Temp;Humidity;BMP_temperature;BMP_pressure;BME280_temperature;BME280_humidity;BME280_pressure;Samples;Min_cycle;Max_cycle;Signal;HPM_P1;HPM_P2
2023/03/11 00:00:12;;;;;;;6.60;1.70;;;0.40;99.90;;;;;;6180842;23;20013;-89
2023/03/11 00:02:39;;;;;;;5.40;1.73;;;0.40;99.90;;;;;;6208430;23;20024;-88
2023/03/11 00:05:06;;;;;;;5.80;1.50;;;0.40;99.90;;;;;;6212598;23;20004;-89
2023/03/11 00:07:31;;;;;;;5.38;1.67;;;0.50;99.90;;;;;;6209497;23;20403;-89
2023/03/11 00:09:58;;;;;;;5.47;1.45;;;0.50;99.90;;;;;;6183392;23;20068;-89
2023/03/11 00:12:24;;;;;;;6.10;1.58;;;0.50;99.90;;;;;;6210616;23;20008;-89
2023/03/11 00:14:49;;;;;;;8.18;1.77;;;0.50;99.90;;;;;;6211143;23;20017;-88
2023/03/11 00:17:15;;;;;;;4.80;1.48;;;0.50;99.90;;;;;;6184135;23;20087;-89
2023/03/11 00:19:40;;;;;;;5.97;1.77;;;0.50;99.90;;;;;;6160396;23;20022;-89
2023/03/11 00:22:07;;;;;;;5.82;1.55;;;0.50;99.90;;;;;;6185776;23;20397;-89
2023/03/11 00:24:33;;;;;;;4.47;1.95;;;0.50;99.90;;;;;;6213433;23;20084;-88
2023/03/11 00:26:59;;;;;;;5.28;1.65;;;0.50;99.90;;;;;;6186252;23;20102;-89
2023/03/11 00:29:24;;;;;;;6.80;1.88;;;0.50;99.90;;;;;;6210060;23;20375;-88
2023/03/11 00:31:50;;;;;;;8.45;1.52;;;0.50;99.90;;;;;;6184062;23;20095;-89
2023/03/11 00:34:15;;;;;;;5.82;1.65;;;0.60;99.90;;;;;;6161373;23;20047;-89
2023/03/11 00:36:41;;;;;;;7.22;1.70;;;0.50;99.90;;;;;;6211366;23;20342;-89
2023/03/11 00:39:07;;;;;;;7.55;1.70;;;0.60;99.90;;;;;;6186044;23;20019;-88
2023/03/11 00:41:33;;;;;;;8.88;2.05;;;0.60;99.90;;;;;;6212867;23;20017;-88
2023/03/11 00:43:59;;;;;;;8.48;1.80;;;0.60;99.90;;;;;;6214709;23;20017;-90
2023/03/11 00:46:25;;;;;;;7.28;1.63;;;0.60;99.90;;;;;;6212619;23;20044;-88
2023/03/11 00:48:51;;;;;;;6.93;1.38;;;0.60;99.90;;;;;;6186516;23;20009;-88
2023/03/11 00:51:17;;;;;;;8.50;1.70;;;0.50;99.90;;;;;;6213661;23;20009;-88
2023/03/11 00:53:43;;;;;;;6.50;2.08;;;0.50;99.90;;;;;;6213419;23;20035;-88
2023/03/11 00:56:11;;;;;;;9.13;1.73;;;0.50;99.90;;;;;;6185419;23;20015;-88
2023/03/11 00:58:38;;;;;;;7.45;1.65;;;0.50;99.90;;;;;;6184887;23;20410;-88
2023/03/11 01:01:12;;;;;;;10.80;1.98;;;0.50;99.90;;;;;;6218065;23;20009;-89
2023/03/11 01:03:39;;;;;;;11.18;2.08;;;0.50;99.90;;;;;;6223299;23;20325;-89
2023/03/11 01:06:05;;;;;;;5.25;1.27;;;0.50;99.90;;;;;;6195529;23;20050;-89
2023/03/11 01:08:31;;;;;;;5.88;1.60;;;0.50;99.90;;;;;;6217652;23;20023;-89
2023/03/11 01:10:57;;;;;;;9.50;3.17;;;0.50;99.90;;;;;;6221602;23;20057;-89
2023/03/11 01:13:24;;;;;;;4.35;1.63;;;0.50;99.90;;;;;;6194418;23;20036;-89
2023/03/11 01:15:51;;;;;;;9.40;1.88;;;0.50;99.90;;;;;;6220979;23;20094;-88
2023/03/11 01:18:17;;;;;;;4.70;2.10;;;0.50;99.90;;;;;;6219897;23;20013;-88
2023/03/11 01:20:42;;;;;;;4.68;1.63;;;0.50;99.90;;;;;;6187818;23;20068;-89
2023/03/11 01:23:10;;;;;;;5.60;1.70;;;0.60;99.90;;;;;;6162135;23;20052;-88
2023/03/11 01:25:36;;;;;;;7.00;1.70;;;0.50;99.90;;;;;;6213517;23;20086;-88
2023/03/11 01:28:01;;;;;;;8.10;1.70;;;0.50;99.90;;;;;;6187179;23;20080;-89
2023/03/11 01:30:28;;;;;;;6.25;1.50;;;0.50;99.90;;;;;;6213290;23;20005;-88
2023/03/11 01:32:55;;;;;;;6.65;1.55;;;0.50;99.90;;;;;;6214443;23;20067;-88
2023/03/11 01:35:23;;;;;;;7.68;1.45;;;0.40;99.90;;;;;;6185677;23;20091;-89
2023/03/11 01:37:49;;;;;;;4.55;1.33;;;0.50;99.90;;;;;;6212335;23;20036;-88
2023/03/11 01:40:24;;;;;;;8.30;1.85;;;0.40;99.90;;;;;;6212859;23;20009;-89
2023/03/11 01:42:50;;;;;;;7.80;1.67;;;0.40;99.90;;;;;;6161731;23;20059;-88
2023/03/11 01:45:32;;;;;;;7.18;1.25;;;0.40;99.90;;;;;;6212869;23;20012;-88
2023/03/11 01:47:58;;;;;;;5.93;1.48;;;0.40;99.90;;;;;;6186301;23;20013;-88
2023/03/11 01:50:26;;;;;;;8.55;1.80;;;0.40;99.90;;;;;;6211673;23;20012;-88
2023/03/11 01:52:52;;;;;;;8.43;1.67;;;0.40;99.90;;;;;;6185360;23;20017;-88
2023/03/11 01:55:18;;;;;;;6.63;1.60;;;0.40;99.90;;;;;;6212566;23;20091;-88
2023/03/11 01:57:46;;;;;;;7.00;1.52;;;0.40;99.90;;;;;;6185260;23;20016;-89
2023/03/11 02:00:14;;;;;;;6.68;1.30;;;0.40;99.90;;;;;;6184827;23;20048;-88
2023/03/11 02:02:47;;;;;;;6.22;1.35;;;0.40;99.90;;;;;;6182236;23;20079;-89
2023/03/11 02:05:13;;;;;;;5.00;1.27;;;0.40;99.90;;;;;;6183281;23;20095;-89
2023/03/11 02:07:40;;;;;;;4.20;1.20;;;0.50;99.90;;;;;;6211578;23;20629;-88
2023/03/11 02:10:07;;;;;;;8.10;1.45;;;0.50;99.90;;;;;;6211554;23;20023;-89
2023/03/11 02:12:35;;;;;;;5.05;1.30;;;0.50;99.90;;;;;;6211765;23;20083;-88
2023/03/11 02:15:01;;;;;;;4.93;1.20;;;0.40;99.90;;;;;;6161769;23;20020;-89
2023/03/11 02:17:27;;;;;;;5.30;2.17;;;0.40;99.90;;;;;;6211455;23;20446;-89
2023/03/11 02:20:04;;;;;;;8.70;1.70;;;0.40;99.90;;;;;;6212731;23;20026;-88
2023/03/11 02:22:32;;;;;;;6.30;1.65;;;0.40;99.90;;;;;;6185889;23;20398;-88
2023/03/11 02:25:08;;;;;;;6.47;2.38;;;0.40;99.90;;;;;;6185549;23;20075;-89
2023/03/11 02:27:37;;;;;;;5.30;1.48;;;0.40;99.90;;;;;;6159763;23;20012;-89
2023/03/11 02:30:04;;;;;;;7.22;1.65;;;0.30;99.90;;;;;;6184957;23;20047;-89
2023/03/11 02:32:30;;;;;;;5.65;1.13;;;0.30;99.90;;;;;;6208557;23;20460;-89
2023/03/11 02:34:56;;;;;;;6.65;1.55;;;0.30;99.90;;;;;;6181998;23;20016;-87
2023/03/11 02:37:22;;;;;;;4.35;1.10;;;0.30;99.90;;;;;;6211168;23;20295;-89
2023/03/11 02:39:49;;;;;;;5.93;1.25;;;0.30;99.90;;;;;;6185077;23;20171;-88
2023/03/11 02:42:22;;;;;;;5.43;1.25;;;0.30;99.90;;;;;;6210652;23;20017;-88
2023/03/11 02:45:07;;;;;;;4.45;1.10;;;0.20;99.90;;;;;;6210635;23;20075;-89
2023/03/11 02:47:34;;;;;;;7.07;1.58;;;0.30;99.90;;;;;;6184028;23;20024;-88
2023/03/11 02:50:00;;;;;;;8.63;1.85;;;0.20;99.90;;;;;;6160690;23;20100;-88
2023/03/11 02:52:27;;;;;;;5.63;1.10;;;0.20;99.90;;;;;;6212069;23;20398;-89
2023/03/11 02:54:53;;;;;;;7.18;1.17;;;0.20;99.90;;;;;;6185734;23;20029;-89
2023/03/11 02:57:19;;;;;;;5.40;1.27;;;0.10;99.90;;;;;;6184060;23;20023;-89
2023/03/11 02:59:44;;;;;;;4.70;1.10;;;0.10;99.90;;;;;;6211689;23;20012;-90
2023/03/11 03:02:10;;;;;;;6.38;1.23;;;0.00;99.90;;;;;;6184965;23;20446;-89
2023/03/11 03:04:36;;;;;;;3.60;0.85;;;0.00;99.90;;;;;;6208061;23;20009;-89
2023/03/11 03:07:02;;;;;;;9.70;1.58;;;-0.10;99.90;;;;;;6183718;23;20454;-88
2023/03/11 03:09:27;;;;;;;4.55;1.10;;;-0.10;99.90;;;;;;6210987;23;20009;-89
2023/03/11 03:11:53;;;;;;;7.47;1.15;;;-0.10;99.90;;;;;;6211731;23;20022;-89
2023/03/11 03:14:19;;;;;;;6.57;1.23;;;-0.20;99.90;;;;;;6184553;23;20017;-88
2023/03/11 03:16:44;;;;;;;4.32;1.10;;;-0.30;99.90;;;;;;6210807;23;20013;-89
2023/03/11 03:19:10;;;;;;;8.30;1.25;;;-0.30;99.90;;;;;;6210459;23;20027;-88
2023/03/11 03:21:36;;;;;;;5.90;1.15;;;-0.40;99.90;;;;;;6183658;23;20126;-89
2023/03/11 03:24:02;;;;;;;3.80;0.90;;;-0.40;99.90;;;;;;6209950;23;20016;-89
2023/03/11 03:26:27;;;;;;;4.32;0.85;;;-0.50;99.90;;;;;;6210533;23;20009;-89
2023/03/11 03:28:53;;;;;;;3.92;1.00;;;-0.50;99.90;;;;;;6212322;23;20023;-89
2023/03/11 03:31:18;;;;;;;4.55;1.20;;;-0.50;99.90;;;;;;6183854;23;20024;-89
2023/03/11 03:33:44;;;;;;;2.75;0.98;;;-0.50;99.90;;;;;;6186149;23;20023;-90
2023/03/11 03:36:12;;;;;;;4.22;0.98;;;-0.50;99.90;;;;;;6211592;23;20389;-89
2023/03/11 03:38:38;;;;;;;4.07;1.10;;;-0.50;99.90;;;;;;6185066;23;20017;-88
2023/03/11 03:41:04;;;;;;;4.82;1.00;;;-0.40;99.90;;;;;;6212854;23;20016;-89
2023/03/11 03:43:30;;;;;;;2.92;1.02;;;-0.40;99.90;;;;;;6184269;23;20342;-89
2023/03/11 03:46:03;;;;;;;6.45;0.93;;;-0.50;99.90;;;;;;6210187;23;20026;-88
2023/03/11 03:48:29;;;;;;;3.17;1.00;;;-0.50;99.90;;;;;;6209012;23;20024;-89
2023/03/11 03:50:55;;;;;;;3.20;1.08;;;-0.60;99.90;;;;;;6184183;23;20029;-89
2023/03/11 03:53:21;;;;;;;8.10;1.30;;;-0.70;99.90;;;;;;6158710;23;20095;-89
2023/03/11 03:55:46;;;;;;;3.85;0.88;;;-0.80;99.90;;;;;;6184894;23;20066;-89
2023/03/11 03:58:12;;;;;;;4.15;1.20;;;-0.80;99.90;;;;;;6210224;23;20023;-89
2023/03/11 04:00:38;;;;;;;3.63;1.00;;;-0.90;99.90;;;;;;6184181;23;20023;-90
2023/03/11 04:03:04;;;;;;;3.50;1.10;;;-1.00;99.90;;;;;;6209779;23;20088;-89
2023/03/11 04:05:31;;;;;;;4.00;1.10;;;-1.00;99.90;;;;;;6205392;23;20304;-89
2023/03/11 04:07:56;;;;;;;3.42;0.73;;;-1.10;99.90;;;;;;6209362;23;20008;-88
2023/03/11 04:10:22;;;;;;;7.65;1.80;;;-1.10;99.90;;;;;;6183844;23;20044;-89
2023/03/11 04:12:48;;;;;;;3.67;0.98;;;-1.10;99.90;;;;;;6185777;23;20024;-89
2023/03/11 04:15:13;;;;;;;5.07;1.40;;;-1.20;99.90;;;;;;6183487;23;20013;-89
2023/03/11 04:17:40;;;;;;;2.15;0.90;;;-1.20;99.90;;;;;;6209425;23;20042;-89
2023/03/11 04:20:07;;;;;;;3.17;0.95;;;-1.20;99.90;;;;;;6211992;23;20377;-89
2023/03/11 04:22:33;;;;;;;3.63;1.10;;;-1.20;99.90;;;;;;6209154;23;20430;-90
2023/03/11 04:24:58;;;;;;;2.92;1.05;;;-1.30;99.90;;;;;;6182836;23;20362;-89
2023/03/11 04:27:24;;;;;;;5.28;1.10;;;-1.30;99.90;;;;;;6211019;23;20008;-90
2023/03/11 04:29:50;;;;;;;6.35;1.30;;;-1.30;99.90;;;;;;6210028;23;20074;-90
2023/03/11 04:32:15;;;;;;;3.58;1.10;;;-1.30;99.90;;;;;;6183157;23;20044;-89
2023/03/11 04:34:41;;;;;;;3.28;1.10;;;-1.30;99.90;;;;;;6183809;23;20072;-89
2023/03/11 04:37:07;;;;;;;3.72;1.08;;;-1.30;99.90;;;;;;6207937;23;20019;-89
2023/03/11 04:39:32;;;;;;;4.63;1.25;;;-1.30;99.90;;;;;;6183831;23;20489;-90
2023/03/11 04:41:58;;;;;;;5.40;1.08;;;-1.30;99.90;;;;;;6184794;23;20016;-90
2023/03/11 04:44:24;;;;;;;2.33;0.95;;;-1.40;99.90;;;;;;6210358;23;20066;-89
2023/03/11 04:46:50;;;;;;;3.05;0.98;;;-1.40;99.90;;;;;;6185199;23;20103;-90
2023/03/11 04:49:15;;;;;;;4.57;1.50;;;-1.40;99.90;;;;;;6184282;23;20112;-90
2023/03/11 04:51:41;;;;;;;5.13;1.42;;;-1.40;99.90;;;;;;6184469;23;20009;-90
2023/03/11 04:54:07;;;;;;;7.20;1.10;;;-1.50;99.90;;;;;;6211725;23;20016;-90
2023/03/11 04:56:33;;;;;;;3.20;1.15;;;-1.50;99.90;;;;;;6211254;23;20021;-90
2023/03/11 04:58:59;;;;;;;3.70;1.42;;;-1.50;99.90;;;;;;6210847;23;20005;-90
2023/03/11 05:01:25;;;;;;;5.65;1.30;;;-1.50;99.90;;;;;;6183519;23;20024;-90
2023/03/11 05:03:50;;;;;;;3.63;1.15;;;-1.50;99.90;;;;;;6183464;23;20573;-90
2023/03/11 05:06:16;;;;;;;4.43;1.08;;;-1.50;99.90;;;;;;6158454;23;20016;-89
2023/03/11 05:08:42;;;;;;;4.13;1.20;;;-1.60;99.90;;;;;;6211000;23;20009;-90
2023/03/11 05:11:07;;;;;;;4.18;1.10;;;-1.60;99.90;;;;;;6185006;23;20017;-91
2023/03/11 05:13:33;;;;;;;3.22;1.27;;;-1.60;99.90;;;;;;6184790;23;20343;-90
2023/03/11 05:15:59;;;;;;;3.40;1.20;;;-1.60;99.90;;;;;;6212753;23;20013;-89
2023/03/11 05:18:25;;;;;;;7.07;1.50;;;-1.60;99.90;;;;;;6161345;23;20589;-90
2023/03/11 05:20:52;;;;;;;4.75;1.15;;;-1.70;99.90;;;;;;6161719;23;20012;-91
2023/03/11 05:23:18;;;;;;;4.35;1.30;;;-1.70;99.90;;;;;;6160447;23;20008;-90
2023/03/11 05:25:44;;;;;;;4.75;1.25;;;-1.70;99.90;;;;;;6213124;23;20366;-90
2023/03/11 05:28:10;;;;;;;3.80;1.50;;;-1.70;99.90;;;;;;6185597;23;20042;-90
2023/03/11 05:30:36;;;;;;;5.57;1.20;;;-1.70;99.90;;;;;;6161373;23;20063;-90
2023/03/11 05:33:01;;;;;;;3.35;1.48;;;-1.80;99.90;;;;;;6160972;23;20402;-90
2023/03/11 05:35:27;;;;;;;5.05;1.60;;;-1.80;99.90;;;;;;6212750;23;20570;-88
2023/03/11 05:37:53;;;;;;;7.72;1.55;;;-1.80;99.90;;;;;;6160963;23;20052;-90
2023/03/11 05:40:20;;;;;;;5.07;1.20;;;-1.80;99.90;;;;;;6211712;23;20381;-89
2023/03/11 05:42:45;;;;;;;3.67;1.10;;;-1.80;99.90;;;;;;6159804;23;20068;-89
2023/03/11 05:45:11;;;;;;;3.83;1.10;;;-1.90;99.90;;;;;;6186502;23;20390;-89
2023/03/11 05:47:37;;;;;;;4.15;1.10;;;-1.90;99.90;;;;;;6210414;23;20761;-91
2023/03/11 05:50:04;;;;;;;3.10;1.08;;;-1.90;99.90;;;;;;6181847;23;20442;-90
2023/03/11 05:52:31;;;;;;;3.28;1.00;;;-1.90;99.90;;;;;;6184837;23;20012;-89
2023/03/11 05:54:57;;;;;;;5.18;1.42;;;-2.00;99.90;;;;;;6213892;23;20388;-90
2023/03/11 05:57:23;;;;;;;5.32;1.30;;;-2.00;99.90;;;;;;6211018;23;20052;-89
2023/03/11 05:59:49;;;;;;;6.50;1.42;;;-2.00;99.90;;;;;;6213352;23;20073;-88
2023/03/11 06:02:14;;;;;;;4.32;1.55;;;-2.00;99.90;;;;;;6185001;23;20026;-93
2023/03/11 06:04:40;;;;;;;3.97;1.15;;;-2.00;99.90;;;;;;6214391;23;20021;-89
2023/03/11 06:07:06;;;;;;;3.60;1.13;;;-2.00;99.90;;;;;;6166081;23;20012;-88
2023/03/11 06:09:34;;;;;;;3.70;1.05;;;-2.20;99.90;;;;;;6212275;23;20020;-92
2023/03/11 06:12:00;;;;;;;2.97;0.95;;;-2.40;99.90;;;;;;6214853;23;20446;-87
2023/03/11 06:14:27;;;;;;;4.65;1.10;;;-2.50;99.90;;;;;;6187964;23;20017;-90
2023/03/11 06:16:53;;;;;;;5.05;1.20;;;-2.50;99.90;;;;;;6186813;23;20016;-87
2023/03/11 06:19:19;;;;;;;2.15;0.98;;;-2.50;99.90;;;;;;6212802;23;20087;-88
2023/03/11 06:21:44;;;;;;;4.75;1.42;;;-2.50;99.90;;;;;;6159927;23;20469;-90
2023/03/11 06:24:10;;;;;;;6.20;1.13;;;-2.40;99.90;;;;;;6161420;23;20009;-88
2023/03/11 06:26:36;;;;;;;6.20;1.52;;;-2.40;99.90;;;;;;6160040;23;20017;-91
2023/03/11 06:29:02;;;;;;;2.55;1.02;;;-2.40;99.90;;;;;;6210355;23;20036;-90
2023/03/11 06:31:28;;;;;;;3.00;1.10;;;-2.40;99.90;;;;;;6182124;23;20123;-88
2023/03/11 06:33:58;;;;;;;5.90;1.05;;;-2.50;99.90;;;;;;6185794;23;20338;-87
2023/03/11 06:36:25;;;;;;;4.27;1.27;;;-2.50;99.90;;;;;;6212792;23;20371;-89
2023/03/11 06:38:51;;;;;;;3.47;1.20;;;-2.60;99.90;;;;;;6186738;23;20027;-89
2023/03/11 06:41:17;;;;;;;4.47;1.15;;;-2.60;99.90;;;;;;6185887;23;20012;-89
2023/03/11 06:43:42;;;;;;;3.55;1.23;;;-2.50;99.90;;;;;;6216923;23;20020;-91
2023/03/11 06:46:17;;;;;;;2.97;0.98;;;-2.50;99.90;;;;;;6168867;23;20493;-91
2023/03/11 06:48:42;;;;;;;4.57;1.70;;;-2.40;99.90;;;;;;6190582;23;20070;-93
2023/03/11 06:51:09;;;;;;;5.10;1.30;;;-2.40;99.90;;;;;;6167352;23;20020;-92
2023/03/11 06:53:34;;;;;;;4.18;2.15;;;-2.30;99.90;;;;;;6193319;23;20048;-95
2023/03/11 06:56:07;;;;;;;1.80;1.08;;;-2.30;99.90;;;;;;6174505;23;20027;-95
2023/03/11 06:58:34;;;;;;;4.55;1.40;;;-2.20;99.90;;;;;;6192274;23;20036;-93
2023/03/11 07:01:05;;;;;;;7.18;1.60;;;-2.10;99.90;;;;;;6201847;23;20000;-94
2023/03/11 07:03:31;;;;;;;6.22;1.90;;;-2.10;99.90;;;;;;6167853;23;20009;-93
2023/03/11 07:05:57;;;;;;;4.18;1.23;;;-2.00;99.90;;;;;;6191835;23;20008;-93
2023/03/11 07:08:23;;;;;;;5.38;1.13;;;-2.00;99.90;;;;;;6161923;23;20087;-93
2023/03/11 07:11:00;;;;;;;6.72;1.50;;;-1.90;99.90;;;;;;6182241;23;20090;-91
2023/03/11 07:13:26;;;;;;;5.03;2.80;;;-1.80;99.90;;;;;;6213883;23;20021;-91
2023/03/11 07:16:00;;;;;;;3.88;1.40;;;-1.80;99.90;;;;;;6187929;23;20008;-92
2023/03/11 07:18:26;;;;;;;5.40;1.90;;;-1.70;99.90;;;;;;6186363;23;20009;-92
2023/03/11 07:20:51;;;;;;;5.50;1.40;;;-1.60;99.90;;;;;;6161879;23;20465;-90
2023/03/11 07:23:17;;;;;;;6.82;1.50;;;-1.50;99.90;;;;;;6210178;23;20084;-90
2023/03/11 07:25:46;;;;;;;5.13;1.50;;;-1.40;99.90;;;;;;6212434;23;20469;-90
2023/03/11 07:28:12;;;;;;;5.30;1.50;;;-1.30;99.90;;;;;;6183914;23;20019;-92
2023/03/11 07:30:38;;;;;;;5.25;1.50;;;-1.20;99.90;;;;;;6155742;23;20020;-88
2023/03/11 07:33:04;;;;;;;6.82;1.63;;;-1.20;99.90;;;;;;6187225;23;20020;-90
2023/03/11 07:35:30;;;;;;;6.88;1.40;;;-1.10;99.90;;;;;;6160736;23;20387;-92
2023/03/11 07:37:55;;;;;;;5.65;2.00;;;-1.00;99.90;;;;;;6184917;23;20023;-91
2023/03/11 07:40:21;;;;;;;10.18;2.70;;;-0.90;99.90;;;;;;6160965;23;20013;-90
2023/03/11 07:42:48;;;;;;;7.50;2.53;;;-0.80;99.90;;;;;;6185701;23;20051;-91
2023/03/11 07:45:13;;;;;;;8.10;2.83;;;-0.70;99.90;;;;;;6211646;23;20031;-89
2023/03/11 07:47:39;;;;;;;8.20;2.92;;;-0.60;99.90;;;;;;6182607;23;20024;-89
2023/03/11 07:50:05;;;;;;;10.95;2.95;;;-0.50;99.90;;;;;;6186086;23;20020;-87
2023/03/11 07:52:31;;;;;;;7.03;2.40;;;-0.40;99.90;;;;;;6209874;23;20020;-87
2023/03/11 07:54:58;;;;;;;8.85;2.30;;;-0.40;99.90;;;;;;6207319;23;20021;-88
2023/03/11 07:57:23;;;;;;;7.50;2.50;;;-0.30;99.90;;;;;;6184060;23;20095;-87
2023/03/11 07:59:49;;;;;;;8.00;2.72;;;-0.20;99.90;;;;;;6210348;23;20067;-89
2023/03/11 08:02:15;;;;;;;5.03;2.03;;;-0.10;99.90;;;;;;6183564;23;20017;-88
2023/03/11 08:04:40;;;;;;;6.60;2.15;;;0.00;99.90;;;;;;6183808;23;20055;-88
2023/03/11 08:07:06;;;;;;;8.88;2.35;;;0.10;99.90;;;;;;6210081;23;20012;-87
2023/03/11 08:09:34;;;;;;;5.22;2.00;;;0.20;99.90;;;;;;6210888;23;20009;-88
2023/03/11 08:11:59;;;;;;;6.60;2.10;;;0.30;99.90;;;;;;6159544;23;20380;-88
2023/03/11 08:14:25;;;;;;;5.10;1.88;;;0.40;99.90;;;;;;6208690;23;20019;-88
2023/03/11 08:16:51;;;;;;;5.70;1.92;;;0.50;99.90;;;;;;6158858;23;20020;-88
2023/03/11 08:19:16;;;;;;;7.78;2.03;;;0.60;99.90;;;;;;6182700;23;20016;-89
2023/03/11 08:21:42;;;;;;;6.35;1.70;;;0.70;99.90;;;;;;6207766;23;20366;-89
2023/03/11 08:24:11;;;;;;;7.13;1.70;;;0.80;99.90;;;;;;6210499;23;20012;-89
2023/03/11 08:26:36;;;;;;;7.00;1.55;;;0.90;99.90;;;;;;6184059;23;20017;-89
2023/03/11 08:29:03;;;;;;;7.25;2.05;;;1.00;99.90;;;;;;6184406;23;20059;-93
2023/03/11 08:31:31;;;;;;;5.72;1.30;;;1.00;99.90;;;;;;6184803;23;20016;-88
2023/03/11 08:34:00;;;;;;;6.30;1.70;;;1.10;99.90;;;;;;6184979;23;20039;-92
2023/03/11 08:36:26;;;;;;;6.68;1.55;;;1.20;99.90;;;;;;6185329;23;20023;-93
2023/03/11 08:38:52;;;;;;;6.13;1.85;;;1.20;99.90;;;;;;6185598;23;20012;-91
2023/03/11 08:41:20;;;;;;;4.43;1.48;;;1.30;99.90;;;;;;6184560;23;20020;-91
2023/03/11 08:43:46;;;;;;;7.43;1.52;;;1.30;99.90;;;;;;6161224;23;20004;-90
2023/03/11 08:46:27;;;;;;;6.30;1.60;;;1.40;99.90;;;;;;6187471;23;20044;-90
2023/03/11 08:48:53;;;;;;;4.40;1.38;;;1.40;99.90;;;;;;6161513;23;20009;-89
2023/03/11 08:51:20;;;;;;;6.38;1.70;;;1.40;99.90;;;;;;6182992;23;20018;-83
2023/03/11 08:53:46;;;;;;;6.10;1.70;;;1.50;99.90;;;;;;6210828;23;20091;-88
2023/03/11 08:56:12;;;;;;;4.70;1.50;;;1.50;99.90;;;;;;6185294;23;20021;-87
2023/03/11 08:58:38;;;;;;;6.30;1.38;;;1.60;99.90;;;;;;6211623;23;20042;-90
2023/03/11 09:01:05;;;;;;;5.78;1.73;;;1.60;99.90;;;;;;6211143;23;20012;-88
2023/03/11 09:03:32;;;;;;;7.13;1.63;;;1.60;99.90;;;;;;6161107;23;20331;-91
2023/03/11 09:06:06;;;;;;;5.15;2.40;;;1.70;99.90;;;;;;6215465;23;20009;-90
2023/03/11 09:08:32;;;;;;;11.27;2.58;;;1.80;99.90;;;;;;6188999;23;20020;-90
2023/03/11 09:10:58;;;;;;;7.55;2.03;;;1.90;99.90;;;;;;6189109;23;20013;-89
2023/03/11 09:13:24;;;;;;;7.03;1.35;;;1.90;99.90;;;;;;6215405;23;20052;-89
2023/03/11 09:15:50;;;;;;;4.40;1.50;;;1.90;99.90;;;;;;6217177;23;20013;-90
2023/03/11 09:18:16;;;;;;;7.10;1.55;;;2.00;99.90;;;;;;6189377;23;20019;-89
2023/03/11 09:20:43;;;;;;;4.90;1.40;;;2.00;99.90;;;;;;6190228;23;20035;-90
2023/03/11 09:23:11;;;;;;;4.30;1.48;;;2.10;99.90;;;;;;6215163;23;20051;-89
2023/03/11 09:25:37;;;;;;;4.45;1.55;;;2.10;99.90;;;;;;6214600;23;20008;-90
2023/03/11 09:28:03;;;;;;;5.78;1.90;;;2.20;99.90;;;;;;6186721;23;20023;-90
2023/03/11 09:30:29;;;;;;;5.15;1.52;;;2.30;99.90;;;;;;6186071;23;20338;-90
2023/03/11 09:32:55;;;;;;;4.85;2.00;;;2.30;99.90;;;;;;6215047;23;20406;-91
2023/03/11 09:35:20;;;;;;;5.63;1.42;;;2.30;99.90;;;;;;6162016;23;20012;-91
2023/03/11 09:37:46;;;;;;;6.10;1.77;;;2.40;99.90;;;;;;6215239;23;20009;-91
2023/03/11 09:40:18;;;;;;;7.30;1.67;;;2.40;99.90;;;;;;6185887;23;20021;-92
2023/03/11 09:42:57;;;;;;;4.00;1.33;;;2.40;99.90;;;;;;6188419;23;20044;-92
2023/03/11 09:45:30;;;;;;;7.45;1.92;;;2.50;99.90;;;;;;6163049;23;20016;-92
2023/03/11 09:48:20;;;;;;;4.88;1.45;;;2.60;99.90;;;;;;6216444;23;20009;-92
2023/03/11 09:51:02;;;;;;;7.15;1.50;;;2.60;99.90;;;;;;6189981;23;20053;-94
2023/03/11 09:53:39;;;;;;;5.60;1.50;;;2.60;99.90;;;;;;6190117;23;20011;-93
2023/03/11 09:56:07;;;;;;;5.03;1.60;;;2.70;99.90;;;;;;6216208;23;20469;-94
2023/03/11 09:58:42;;;;;;;6.78;1.75;;;2.70;99.90;;;;;;6191428;23;20058;-93
2023/03/11 10:01:22;;;;;;;3.95;1.42;;;2.80;99.90;;;;;;6216102;23;20020;-93
2023/03/11 10:03:52;;;;;;;3.70;1.30;;;2.80;99.90;;;;;;6193647;23;20017;-94
2023/03/11 10:06:36;;;;;;;7.57;1.80;;;2.90;99.90;;;;;;6215984;23;20008;-93
2023/03/11 10:09:11;;;;;;;5.85;1.65;;;3.00;99.90;;;;;;6190587;23;20009;-91
2023/03/11 10:11:43;;;;;;;4.13;1.60;;;3.00;99.90;;;;;;6189770;23;20077;-93
2023/03/11 10:14:21;;;;;;;4.75;1.42;;;3.00;99.90;;;;;;6174262;23;20013;-89
2023/03/11 10:17:02;;;;;;;3.42;1.30;;;3.10;99.90;;;;;;6197354;23;20012;-92
2023/03/11 10:19:47;;;;;;;;;;;3.20;99.90;;;;;;6195999;23;20013;-90
2023/03/11 10:22:35;;;;;;;5.63;1.63;;;3.20;99.90;;;;;;6197542;23;19911;-92
2023/03/11 10:25:17;;;;;;;4.32;1.40;;;3.30;99.90;;;;;;6174758;23;20024;-94
2023/03/11 10:27:53;;;;;;;4.07;1.58;;;3.30;99.90;;;;;;6225090;23;20013;-90
2023/03/11 10:30:42;;;;;;;5.93;1.60;;;3.40;99.90;;;;;;6224826;23;20488;-92
2023/03/11 10:33:21;;;;;;;7.57;1.80;;;3.40;99.90;;;;;;6169904;23;20020;-91
2023/03/11 10:35:51;;;;;;;6.50;1.63;;;3.30;99.90;;;;;;6218077;23;20008;-89
2023/03/11 10:38:21;;;;;;;4.03;1.83;;;3.40;99.90;;;;;;6187629;23;20020;-94
2023/03/11 10:40:50;;;;;;;5.20;1.67;;;3.40;99.90;;;;;;6227054;23;20012;-95
